Time;durP1;ratioP1;P1;durP2;ratioP2;P2;SDS_P1;SDS_P2;PMS_P1;PMS_P2;Temp;Humidity;BMP_temperature;BMP_pressure;BME280_temperature;BME280_humidity;BME280_pressure;Samples;Min_cycle;Max_cycle;Signal;HPM_P1;HPM_P2
2022/11/15 11:37:44;;;;;;;5.20;4.70;;;21.50;58.90;;;;;;625756;226;26573;-70
2022/11/15 11:40:22;;;;;;;5.20;4.90;;;21.40;59.10;;;;;;618099;230;25752;-72
2022/11/15 11:43:03;;;;;;;65.03;44.40;;;21.50;59.20;;;;;;613140;230;23681;-74
2022/11/15 11:45:54;;;;;;;6.90;6.30;;;21.60;59.20;;;;;;616203;230;28232;-70
2022/11/15 11:48:36;;;;;;;7.00;6.30;;;21.60;59.20;;;;;;604105;231;31628;-73
2022/11/15 11:51:06;;;;;;;6.77;6.10;;;21.70;59.00;;;;;;613131;231;28142;-73
2022/11/15 11:53:39;;;;;;;6.13;5.63;;;21.70;58.90;;;;;;612670;230;28055;-72
2022/11/15 11:56:05;;;;;;;6.50;6.10;;;21.60;58.60;;;;;;616916;229;25566;-71
2022/11/15 11:58:36;;;;;;;7.10;6.40;;;21.50;59.10;;;;;;614683;230;25560;-72
2022/11/15 12:01:11;;;;;;;7.20;6.33;;;21.40;59.40;;;;;;616012;229;26051;-72
2022/11/15 12:03:39;;;;;;;6.80;6.30;;;21.30;59.60;;;;;;630341;225;25953;-72
2022/11/15 12:06:41;;;;;;;7.07;6.47;;;21.30;59.90;;;;;;620934;229;27611;-72
2022/11/15 12:09:11;;;;;;;7.20;6.53;;;21.20;59.80;;;;;;620796;226;26041;-72
2022/11/15 12:11:39;;;;;;;6.80;5.80;;;21.40;60.50;;;;;;626727;226;25503;-69
2022/11/15 12:14:05;;;;;;;6.53;6.07;;;21.50;59.60;;;;;;626403;226;27647;-73
2022/11/15 12:16:32;;;;;;;6.50;6.10;;;21.50;59.40;;;;;;623101;227;28063;-74
2022/11/15 12:18:59;;;;;;;7.07;6.53;;;21.60;59.40;;;;;;615768;231;27684;-71
2022/11/15 12:21:46;;;;;;;7.40;6.80;;;21.60;59.30;;;;;;610972;234;25594;-72
2022/11/15 12:24:15;;;;;;;7.13;6.53;;;21.60;59.30;;;;;;609803;234;25514;-71
2022/11/15 12:26:46;;;;;;;7.03;6.50;;;21.50;59.20;;;;;;609594;234;25586;-70
2022/11/15 12:29:13;;;;;;;7.10;6.50;;;21.60;59.20;;;;;;618784;230;25587;-72
2022/11/15 12:31:41;;;;;;;6.70;6.20;;;21.60;59.20;;;;;;611294;234;25583;-71
2022/11/15 12:34:13;;;;;;;7.00;6.50;;;21.60;59.20;;;;;;605927;234;28094;-75
2022/11/15 12:36:41;;;;;;;8.13;7.53;;;21.60;59.30;;;;;;614356;230;27672;-71
2022/11/15 12:39:08;;;;;;;7.57;6.97;;;21.50;59.30;;;;;;612224;230;25483;-70
2022/11/15 12:41:36;;;;;;;7.53;6.87;;;21.60;59.10;;;;;;615427;230;25565;-71
2022/11/15 12:44:03;;;;;;;7.20;6.70;;;21.60;59.10;;;;;;618130;230;27688;-71
2022/11/15 12:47:00;;;;;;;7.03;6.63;;;21.70;59.00;;;;;;614614;230;27701;-69
2022/11/15 12:49:41;;;;;;;7.23;6.73;;;21.70;59.00;;;;;;616512;229;27663;-71
2022/11/15 12:52:08;;;;;;;6.90;6.37;;;21.70;59.00;;;;;;621116;229;27669;-70
2022/11/15 12:54:53;;;;;;;7.50;7.00;;;21.70;58.90;;;;;;620454;229;26598;-70
2022/11/15 12:57:30;;;;;;;6.60;6.13;;;21.80;58.90;;;;;;622148;229;27708;-73
2022/11/15 12:59:59;;;;;;;6.67;6.07;;;21.80;58.80;;;;;;620010;229;25493;-74
2022/11/15 13:02:28;;;;;;;7.10;6.60;;;21.80;58.90;;;;;;621856;229;25571;-73
2022/11/15 13:04:55;;;;;;;6.40;6.00;;;21.70;59.10;;;;;;621978;229;25581;-72
2022/11/15 13:07:48;;;;;;;7.47;6.77;;;21.60;59.10;;;;;;621363;230;27669;-71
2022/11/15 13:10:29;;;;;;;7.10;6.50;;;21.50;59.20;;;;;;619873;230;25506;-72
2022/11/15 13:13:04;;;;;;;7.40;6.60;;;21.50;59.40;;;;;;620764;230;25580;-72
2022/11/15 13:15:32;;;;;;;6.97;6.47;;;21.40;59.40;;;;;;621038;230;25834;-71
2022/11/15 13:17:59;;;;;;;6.27;5.67;;;21.30;59.80;;;;;;620686;230;25567;-71
2022/11/15 13:20:26;;;;;;;7.00;6.27;;;21.10;60.00;;;;;;621062;230;26348;-71
2022/11/15 13:22:56;;;;;;;6.50;5.80;;;21.10;60.30;;;;;;620420;230;25521;-72
2022/11/15 13:25:48;;;;;;;7.30;6.40;;;21.00;60.40;;;;;;619537;230;25508;-71
2022/11/15 13:28:37;;;;;;;6.80;6.27;;;20.90;60.50;;;;;;621288;230;27672;-71
2022/11/15 13:31:10;;;;;;;7.47;6.77;;;20.90;60.70;;;;;;619784;230;25565;-71
2022/11/15 13:33:36;;;;;;;6.63;6.23;;;20.80;60.70;;;;;;620140;230;27667;-71
2022/11/15 13:36:04;;;;;;;7.20;6.60;;;20.80;60.80;;;;;;619699;230;25557;-71
2022/11/15 13:38:32;;;;;;;6.23;5.80;;;20.80;60.80;;;;;;619202;230;27603;-70
2022/11/15 13:40:59;;;;;;;6.33;5.93;;;20.70;60.70;;;;;;621737;230;25575;-72
2022/11/15 13:43:29;;;;;;;9.53;6.00;;;20.70;60.70;;;;;;619281;230;26167;-71
2022/11/15 13:46:13;;;;;;;6.80;6.17;;;20.70;60.70;;;;;;620944;230;26080;-71
2022/11/15 13:48:39;;;;;;;6.20;5.80;;;20.70;60.80;;;;;;622088;227;25581;-71
2022/11/15 13:51:25;;;;;;;6.67;6.17;;;20.60;61.00;;;;;;621981;230;25552;-71
2022/11/15 13:53:53;;;;;;;5.97;5.50;;;20.60;60.80;;;;;;617007;230;27676;-72
2022/11/15 13:56:20;;;;;;;6.30;5.87;;;20.60;60.70;;;;;;621538;230;25529;-71
2022/11/15 13:58:46;;;;;;;6.50;6.00;;;20.60;60.70;;;;;;619494;227;25503;-71
2022/11/15 14:01:14;;;;;;;7.00;6.57;;;20.80;61.00;;;;;;622339;229;25558;-75
2022/11/15 14:03:44;;;;;;;6.90;6.23;;;20.80;61.00;;;;;;620116;229;27673;-75
2022/11/15 14:06:12;;;;;;;6.57;6.17;;;21.10;60.40;;;;;;622177;229;25485;-74
2022/11/15 14:08:39;;;;;;;6.67;6.20;;;21.10;60.10;;;;;;622562;229;28102;-76
2022/11/15 14:11:07;;;;;;;7.07;6.47;;;21.20;59.90;;;;;;623412;229;25579;-74
2022/11/15 14:13:33;;;;;;;6.80;5.60;;;21.30;59.90;;;;;;622322;229;25997;-74
2022/11/15 14:16:11;;;;;;;6.23;5.63;;;21.40;59.80;;;;;;621567;230;27650;-72
2022/11/15 14:18:42;;;;;;;6.40;5.80;;;21.50;59.40;;;;;;621291;230;25558;-72
2022/11/15 14:21:09;;;;;;;6.73;6.23;;;21.70;58.70;;;;;;621780;230;25961;-70
2022/11/15 14:23:36;;;;;;;5.80;5.47;;;21.70;59.10;;;;;;621259;230;25563;-72
2022/11/15 14:26:02;;;;;;;6.83;6.33;;;21.80;59.10;;;;;;621036;225;25553;-71
2022/11/15 14:28:30;;;;;;;6.33;5.80;;;21.80;59.00;;;;;;622069;230;25774;-70
2022/11/15 14:30:55;;;;;;;6.37;5.97;;;21.90;59.10;;;;;;622488;230;26627;-71
2022/11/15 14:33:28;;;;;;;7.30;6.47;;;21.90;59.00;;;;;;621003;230;27655;-71
2022/11/15 14:35:52;;;;;;;7.20;6.70;;;22.00;58.90;;;;;;621615;230;27682;-70
2022/11/15 14:38:19;;;;;;;6.93;6.43;;;22.00;59.00;;;;;;621303;230;28086;-70
2022/11/15 14:40:45;;;;;;;7.73;6.17;;;22.00;58.90;;;;;;620680;230;25556;-71
2022/11/15 14:43:12;;;;;;;5.93;5.53;;;22.00;58.90;;;;;;620273;230;27682;-70
2022/11/15 14:45:39;;;;;;;7.10;6.50;;;22.00;58.90;;;;;;621042;230;25553;-72
2022/11/15 14:48:05;;;;;;;6.50;6.10;;;22.00;59.20;;;;;;620762;230;25466;-72
2022/11/15 14:50:32;;;;;;;6.50;6.10;;;22.00;59.20;;;;;;621563;227;28354;-71
2022/11/15 14:52:58;;;;;;;6.67;6.17;;;22.00;59.10;;;;;;621618;230;27694;-70
2022/11/15 14:55:25;;;;;;;6.70;6.30;;;22.10;59.10;;;;;;620145;229;28074;-71
2022/11/15 14:57:52;;;;;;;10.03;6.70;;;22.10;59.00;;;;;;620552;230;27649;-71
2022/11/15 15:00:19;;;;;;;6.83;6.20;;;22.10;58.90;;;;;;620318;230;27618;-72
2022/11/15 15:02:45;;;;;;;6.23;5.63;;;22.10;59.00;;;;;;619432;230;27678;-71
2022/11/15 15:05:18;;;;;;;6.50;5.90;;;22.00;59.00;;;;;;620199;230;27643;-71
2022/11/15 15:07:45;;;;;;;5.97;5.47;;;22.00;59.10;;;;;;619914;230;27649;-72
2022/11/15 15:10:11;;;;;;;6.23;5.83;;;22.00;59.10;;;;;;621380;227;28217;-71
2022/11/15 15:12:38;;;;;;;6.17;5.67;;;22.10;59.00;;;;;;622273;229;27686;-70
2022/11/15 15:15:06;;;;;;;6.23;5.73;;;22.00;59.00;;;;;;620238;229;25563;-72
2022/11/15 15:17:33;;;;;;;12.20;6.13;;;22.00;59.00;;;;;;621860;229;25515;-71
2022/11/15 15:19:59;;;;;;;6.53;6.03;;;22.00;59.10;;;;;;622671;229;28374;-72
2022/11/15 15:22:27;;;;;;;5.63;5.33;;;22.00;59.10;;;;;;623159;229;27614;-71
2022/11/15 15:24:53;;;;;;;6.53;5.60;;;22.00;59.10;;;;;;621447;229;27669;-71
2022/11/15 15:27:20;;;;;;;6.00;5.50;;;21.90;59.20;;;;;;623330;229;27685;-70
2022/11/15 15:29:47;;;;;;;6.57;6.17;;;21.90;59.10;;;;;;619834;230;26008;-72
2022/11/15 15:32:13;;;;;;;7.90;7.40;;;21.90;59.10;;;;;;620890;230;25547;-74
2022/11/15 15:34:40;;;;;;;8.10;7.43;;;22.00;59.00;;;;;;621848;230;26013;-72
2022/11/15 15:37:25;;;;;;;8.07;7.37;;;22.00;59.00;;;;;;622335;230;25580;-72
2022/11/15 15:39:54;;;;;;;8.80;7.90;;;22.00;58.80;;;;;;621309;230;25563;-71
2022/11/15 15:42:20;;;;;;;8.50;7.50;;;22.00;58.80;;;;;;621175;230;25864;-72
2022/11/15 15:44:47;;;;;;;8.57;7.97;;;22.00;58.80;;;;;;621098;230;27932;-71
2022/11/15 15:47:23;;;;;;;10.50;9.90;;;22.00;58.90;;;;;;621783;230;28671;-68
2022/11/15 15:49:50;;;;;;;10.97;10.13;;;22.00;59.50;;;;;;621351;230;28711;-67
2022/11/15 15:52:16;;;;;;;10.50;9.70;;;22.50;59.60;;;;;;622724;230;27677;-73
2022/11/15 15:54:44;;;;;;;9.90;9.20;;;22.60;57.90;;;;;;619969;230;28579;-71
2022/11/15 15:57:12;;;;;;;11.07;10.27;;;22.60;57.80;;;;;;619825;230;26080;-72
2022/11/15 15:59:39;;;;;;;10.17;9.57;;;22.40;58.10;;;;;;620421;230;27688;-72
2022/11/15 16:02:06;;;;;;;9.80;9.30;;;22.40;58.10;;;;;;620584;230;26110;-75
2022/11/15 16:04:33;;;;;;;10.83;9.50;;;22.40;58.10;;;;;;620720;230;25991;-76
2022/11/15 16:07:00;;;;;;;10.80;10.17;;;22.50;58.50;;;;;;619708;230;25616;-73
2022/11/15 16:11:59;;;;;;;11.43;10.60;;;22.60;58.10;;;;;;620299;230;26122;-74
2022/11/15 16:14:26;;;;;;;12.60;10.90;;;22.60;58.10;;;;;;620748;230;26076;-76
2022/11/15 16:16:52;;;;;;;11.10;10.03;;;22.60;57.90;;;;;;620907;230;27704;-76
2022/11/15 16:19:19;;;;;;;11.33;10.63;;;22.70;58.00;;;;;;622461;229;28134;-72
2022/11/15 16:21:46;;;;;;;11.87;11.00;;;22.70;58.00;;;;;;621950;227;27690;-74
2022/11/15 16:24:12;;;;;;;10.30;9.73;;;22.60;57.80;;;;;;621493;229;28191;-76
2022/11/15 16:26:39;;;;;;;10.87;10.20;;;22.60;57.80;;;;;;621896;229;27710;-75
2022/11/15 16:29:06;;;;;;;14.30;10.90;;;22.60;57.80;;;;;;622093;229;27631;-73
2022/11/15 16:31:32;;;;;;;10.80;10.10;;;22.60;57.90;;;;;;621363;229;27600;-74
2022/11/15 16:33:59;;;;;;;11.30;10.43;;;22.60;58.00;;;;;;622261;229;27669;-75
2022/11/15 16:36:25;;;;;;;10.90;10.10;;;22.60;58.00;;;;;;621693;229;27681;-74
2022/11/15 16:38:52;;;;;;;10.80;10.00;;;22.60;58.20;;;;;;620708;229;27649;-75
2022/11/15 16:41:18;;;;;;;11.30;10.50;;;22.50;58.00;;;;;;621935;230;27704;-74
2022/11/15 16:43:46;;;;;;;11.90;10.70;;;22.60;58.10;;;;;;621451;230;25521;-73
2022/11/15 16:46:16;;;;;;;11.30;10.60;;;22.60;58.00;;;;;;621327;230;27665;-72
2022/11/15 16:48:42;;;;;;;11.63;10.60;;;22.60;58.20;;;;;;621151;230;28118;-73
2022/11/15 16:51:09;;;;;;;11.53;10.70;;;22.50;58.00;;;;;;621556;230;27669;-74
2022/11/15 16:53:36;;;;;;;10.70;10.00;;;22.40;58.50;;;;;;622453;230;27668;-72
2022/11/15 16:56:02;;;;;;;11.63;9.93;;;22.40;58.50;;;;;;620977;230;27717;-74
2022/11/15 16:58:29;;;;;;;11.63;10.47;;;22.40;58.50;;;;;;620971;230;27679;-73
2022/11/15 17:00:55;;;;;;;11.23;10.50;;;22.50;58.30;;;;;;620892;226;27680;-72
2022/11/15 17:03:22;;;;;;;11.20;10.50;;;22.50;58.30;;;;;;621472;229;27666;-73
2022/11/15 17:05:49;;;;;;;11.80;10.63;;;22.40;58.40;;;;;;621293;230;27700;-74
2022/11/15 17:08:15;;;;;;;11.40;10.60;;;22.50;58.40;;;;;;620460;230;27636;-73
2022/11/15 17:10:43;;;;;;;11.17;10.40;;;22.30;58.50;;;;;;620102;230;25529;-72
2022/11/15 17:13:12;;;;;;;11.23;10.53;;;22.30;58.50;;;;;;620979;230;26001;-73
2022/11/15 17:15:39;;;;;;;11.20;10.40;;;22.30;58.70;;;;;;621451;230;27692;-72
2022/11/15 17:18:05;;;;;;;11.87;10.90;;;22.20;58.90;;;;;;621696;230;28303;-74
2022/11/15 17:20:32;;;;;;;11.63;10.77;;;22.10;58.90;;;;;;619836;230;27645;-73
2022/11/15 17:22:58;;;;;;;11.80;10.70;;;22.00;59.00;;;;;;619821;230;28058;-73
2022/11/15 17:25:25;;;;;;;11.30;10.60;;;22.00;59.00;;;;;;620720;230;27681;-73
2022/11/15 17:27:52;;;;;;;11.33;10.30;;;22.00;59.00;;;;;;620704;230;25552;-73
2022/11/15 17:30:19;;;;;;;11.83;10.93;;;21.90;59.10;;;;;;621080;230;27661;-73
2022/11/15 17:32:46;;;;;;;11.90;10.73;;;21.80;59.10;;;;;;620700;230;27700;-73
2022/11/15 17:35:14;;;;;;;11.53;10.50;;;21.80;59.20;;;;;;621811;229;27672;-73
2022/11/15 17:37:41;;;;;;;10.93;10.33;;;21.80;59.30;;;;;;621498;229;26029;-72
2022/11/15 17:40:08;;;;;;;11.70;10.90;;;21.70;59.20;;;;;;621433;229;26050;-73
2022/11/15 17:42:35;;;;;;;11.97;10.97;;;21.70;59.30;;;;;;620888;229;27681;-73
2022/11/15 17:45:02;;;;;;;16.30;11.00;;;21.70;59.60;;;;;;621022;229;25571;-73
2022/11/15 17:47:29;;;;;;;13.37;11.70;;;21.60;59.70;;;;;;620646;229;27656;-73
2022/11/15 17:49:57;;;;;;;15.27;13.90;;;21.60;59.80;;;;;;621565;229;27661;-73
2022/11/15 17:52:23;;;;;;;21.40;16.77;;;21.60;59.80;;;;;;621277;229;27674;-73
2022/11/15 17:54:50;;;;;;;21.10;19.10;;;21.60;60.00;;;;;;621261;230;27615;-74
2022/11/15 17:57:17;;;;;;;24.03;21.53;;;21.50;60.10;;;;;;620984;230;25502;-70
2022/11/15 17:59:43;;;;;;;27.67;24.20;;;21.50;60.40;;;;;;621224;230;25492;-73
2022/11/15 18:02:10;;;;;;;38.43;27.37;;;21.50;60.60;;;;;;622808;230;27643;-73
2022/11/15 18:04:36;;;;;;;30.80;26.50;;;21.50;60.90;;;;;;619991;230;27895;-74
2022/11/15 18:07:03;;;;;;;32.77;27.20;;;21.40;60.80;;;;;;619793;230;27669;-72
2022/11/15 18:09:30;;;;;;;39.03;26.07;;;21.40;60.80;;;;;;620407;230;27672;-72
2022/11/15 18:11:57;;;;;;;33.17;27.90;;;21.40;60.90;;;;;;620108;230;25989;-72
2022/11/15 18:14:24;;;;;;;32.87;27.20;;;21.40;61.00;;;;;;620117;230;25572;-73
2022/11/15 18:16:49;;;;;;;34.70;28.63;;;21.40;61.10;;;;;;621722;230;28208;-73
2022/11/15 18:19:16;;;;;;;34.23;30.03;;;21.40;61.20;;;;;;620691;230;25531;-72
2022/11/15 18:24:15;;;;;;;34.03;30.30;;;21.30;61.30;;;;;;621259;230;27655;-72
2022/11/15 18:26:41;;;;;;;38.10;31.73;;;21.30;61.40;;;;;;619306;230;28769;-73
2022/11/15 18:29:08;;;;;;;36.27;30.37;;;21.30;61.50;;;;;;619968;230;25527;-73
2022/11/15 18:31:34;;;;;;;35.70;31.80;;;21.30;61.60;;;;;;620763;230;27662;-72
2022/11/15 18:34:01;;;;;;;38.70;31.77;;;21.20;61.50;;;;;;618915;230;25494;-72
2022/11/15 18:36:28;;;;;;;41.93;31.00;;;21.20;61.60;;;;;;619584;230;27682;-72
2022/11/15 18:38:55;;;;;;;35.10;31.30;;;21.20;62.50;;;;;;620546;230;27599;-72
2022/11/15 18:41:27;;;;;;;36.67;31.63;;;21.20;61.80;;;;;;620472;230;27667;-72
2022/11/15 18:43:50;;;;;;;37.10;31.00;;;21.20;61.80;;;;;;619807;230;28248;-72
2022/11/15 18:46:16;;;;;;;35.47;30.17;;;21.20;61.90;;;;;;623086;227;27667;-72
2022/11/15 18:48:43;;;;;;;38.50;32.43;;;21.20;61.90;;;;;;622499;229;28127;-72
2022/11/15 18:51:10;;;;;;;41.03;30.50;;;21.20;61.90;;;;;;622046;229;27663;-72
2022/11/15 18:53:36;;;;;;;32.73;29.30;;;21.10;61.80;;;;;;622041;229;25561;-72
2022/11/15 18:56:06;;;;;;;39.17;30.40;;;21.20;61.90;;;;;;622146;229;25493;-72
2022/11/15 18:58:33;;;;;;;35.13;29.43;;;21.10;61.80;;;;;;621525;229;28410;-72
2022/11/15 19:01:00;;;;;;;32.40;28.63;;;21.10;61.90;;;;;;621775;227;25561;-72
2022/11/15 19:03:26;;;;;;;31.07;27.70;;;21.10;61.90;;;;;;621351;230;25999;-72
2022/11/15 19:05:53;;;;;;;34.83;28.77;;;21.10;62.00;;;;;;621642;230;27686;-73
2022/11/15 19:08:20;;;;;;;31.40;27.80;;;21.10;62.00;;;;;;621119;230;28286;-73
2022/11/15 19:10:47;;;;;;;34.57;29.63;;;21.10;62.10;;;;;;620732;230;27653;-73
2022/11/15 19:13:14;;;;;;;30.63;27.20;;;21.10;62.10;;;;;;611173;230;27712;-73
2022/11/15 19:15:40;;;;;;;31.73;27.00;;;21.10;62.10;;;;;;621104;230;27685;-72
2022/11/15 19:18:07;;;;;;;32.80;28.03;;;21.00;62.10;;;;;;620261;230;27654;-72
2022/11/15 19:20:33;;;;;;;35.20;28.17;;;21.00;62.10;;;;;;621701;230;25596;-72
2022/11/15 19:23:00;;;;;;;36.80;27.20;;;21.00;62.20;;;;;;620563;230;25544;-73
2022/11/15 19:25:28;;;;;;;29.80;26.23;;;21.00;62.20;;;;;;620152;230;26059;-73
2022/11/15 19:27:53;;;;;;;31.97;28.17;;;21.00;62.20;;;;;;620856;230;27632;-73
2022/11/15 19:30:20;;;;;;;33.13;26.80;;;21.00;62.20;;;;;;619729;230;26898;-74
2022/11/15 19:32:46;;;;;;;32.27;26.07;;;21.00;62.20;;;;;;621143;230;27990;-74
2022/11/15 19:35:13;;;;;;;30.13;26.00;;;21.00;62.20;;;;;;622004;230;26564;-74
2022/11/15 19:37:40;;;;;;;30.33;25.53;;;21.00;62.20;;;;;;621563;230;25516;-74
2022/11/15 19:40:08;;;;;;;27.03;24.47;;;21.00;62.20;;;;;;621225;230;25997;-74
2022/11/15 19:42:34;;;;;;;30.87;24.30;;;21.00;62.20;;;;;;619338;230;27598;-74
2022/11/15 19:45:01;;;;;;;25.83;23.20;;;21.00;62.10;;;;;;619616;230;25537;-74
2022/11/15 19:47:27;;;;;;;25.93;22.97;;;21.00;62.20;;;;;;621166;230;25588;-73
2022/11/15 19:49:54;;;;;;;28.00;22.27;;;21.00;62.30;;;;;;620769;230;25477;-73
2022/11/15 19:52:23;;;;;;;34.90;22.40;;;21.00;62.40;;;;;;620765;230;27677;-74
2022/11/15 19:54:47;;;;;;;24.97;22.27;;;21.00;62.60;;;;;;620170;230;27681;-74
2022/11/15 19:57:14;;;;;;;24.20;21.77;;;21.00;62.70;;;;;;621760;227;25570;-73
2022/11/15 19:59:41;;;;;;;23.60;20.77;;;21.00;62.50;;;;;;623193;229;25496;-74
2022/11/15 20:02:08;;;;;;;25.67;21.40;;;21.00;62.50;;;;;;622853;229;25577;-71
2022/11/15 20:04:36;;;;;;;22.90;20.40;;;20.90;62.10;;;;;;621468;229;26011;-74
2022/11/15 20:07:02;;;;;;;19.47;17.53;;;20.90;62.10;;;;;;620673;229;26112;-74
2022/11/15 20:09:31;;;;;;;19.83;17.50;;;20.90;60.60;;;;;;621333;229;28278;-74
2022/11/15 20:11:57;;;;;;;18.67;16.30;;;20.80;60.10;;;;;;621159;229;27692;-74
2022/11/15 20:14:23;;;;;;;21.43;15.90;;;20.70;59.70;;;;;;622166;229;28150;-74
2022/11/15 20:16:50;;;;;;;17.27;15.57;;;20.70;59.60;;;;;;620616;230;27678;-74
2022/11/15 20:19:16;;;;;;;17.33;15.63;;;20.60;59.50;;;;;;620924;230;28167;-74
2022/11/15 20:21:43;;;;;;;18.77;16.87;;;20.50;59.40;;;;;;620420;230;25612;-73
2022/11/15 20:24:10;;;;;;;17.57;15.70;;;20.50;59.30;;;;;;621565;230;25559;-73
2022/11/15 20:26:37;;;;;;;17.37;15.90;;;20.40;59.30;;;;;;621638;230;27663;-73
2022/11/15 20:29:03;;;;;;;17.70;16.00;;;20.40;59.50;;;;;;620453;230;25602;-73
2022/11/15 20:31:30;;;;;;;17.20;15.73;;;20.40;59.60;;;;;;620679;230;25584;-73
2022/11/15 20:33:56;;;;;;;16.17;14.80;;;20.30;59.50;;;;;;619394;230;25581;-73
2022/11/15 20:36:23;;;;;;;18.40;16.70;;;20.30;59.50;;;;;;621001;230;25561;-73
2022/11/15 20:38:49;;;;;;;16.00;14.40;;;20.20;59.40;;;;;;621379;230;25552;-74
2022/11/15 20:41:16;;;;;;;16.30;14.70;;;20.20;59.50;;;;;;620761;230;25623;-73
2022/11/15 20:43:43;;;;;;;16.80;15.60;;;20.10;59.40;;;;;;620268;230;26020;-73
2022/11/15 20:46:10;;;;;;;16.83;15.47;;;20.10;59.60;;;;;;621432;230;25594;-73
2022/11/15 20:48:36;;;;;;;16.90;15.33;;;20.10;59.60;;;;;;620885;230;25968;-73
2022/11/15 20:51:13;;;;;;;19.57;15.67;;;20.10;59.60;;;;;;619236;230;25489;-73
2022/11/15 20:53:40;;;;;;;17.07;15.33;;;20.00;59.50;;;;;;618987;230;25489;-73
2022/11/15 20:56:07;;;;;;;17.67;15.83;;;20.00;59.80;;;;;;621807;230;26006;-73
2022/11/15 20:58:33;;;;;;;18.33;16.73;;;20.00;60.20;;;;;;620379;230;25469;-73
2022/11/15 21:01:00;;;;;;;20.10;18.30;;;20.00;60.40;;;;;;622115;230;28189;-73
2022/11/15 21:03:26;;;;;;;20.13;18.30;;;20.00;60.40;;;;;;621563;230;27678;-73
2022/11/15 21:05:53;;;;;;;19.53;17.77;;;19.90;60.50;;;;;;621037;230;26092;-73
2022/11/15 21:08:20;;;;;;;19.20;16.93;;;19.90;60.40;;;;;;619997;229;25574;-73
2022/11/15 21:13:19;;;;;;;19.00;17.30;;;19.90;60.40;;;;;;622575;229;25583;-73
2022/11/15 21:15:46;;;;;;;19.67;17.57;;;19.80;60.40;;;;;;620385;229;27622;-73
2022/11/15 21:18:14;;;;;;;18.30;16.47;;;19.80;61.20;;;;;;622007;229;25993;-73
2022/11/15 21:20:40;;;;;;;18.43;16.93;;;19.80;60.40;;;;;;621255;229;26182;-73
2022/11/15 21:23:07;;;;;;;18.93;17.33;;;19.80;61.10;;;;;;620236;230;25814;-73
2022/11/15 21:25:34;;;;;;;19.50;17.60;;;19.70;60.50;;;;;;621385;229;26289;-73
2022/11/15 21:28:00;;;;;;;20.47;17.83;;;19.70;60.60;;;;;;620281;230;25556;-73
2022/11/15 21:30:27;;;;;;;20.50;18.07;;;19.70;60.50;;;;;;621757;229;25552;-73
2022/11/15 21:32:53;;;;;;;19.97;17.93;;;19.70;61.20;;;;;;621164;230;25493;-73
2022/11/15 21:35:20;;;;;;;21.17;17.67;;;19.70;60.30;;;;;;622103;230;25576;-73
2022/11/15 21:37:47;;;;;;;19.83;17.83;;;19.70;60.40;;;;;;621620;230;25541;-73
2022/11/15 21:40:13;;;;;;;19.07;17.13;;;19.70;60.50;;;;;;619764;230;25612;-73
2022/11/15 21:42:40;;;;;;;17.37;15.97;;;19.60;60.40;;;;;;621215;230;25571;-73
2022/11/15 21:45:07;;;;;;;19.90;15.90;;;19.60;60.50;;;;;;621028;230;25553;-73
2022/11/15 21:47:34;;;;;;;18.13;16.07;;;19.50;60.50;;;;;;620955;230;25575;-73
2022/11/15 21:50:00;;;;;;;17.90;16.27;;;19.60;60.80;;;;;;621624;229;28121;-73
2022/11/15 21:52:27;;;;;;;23.57;16.30;;;19.60;61.10;;;;;;619483;230;25560;-73
2022/11/15 21:54:53;;;;;;;16.80;15.50;;;19.70;61.60;;;;;;620070;230;25503;-73
2022/11/15 21:57:20;;;;;;;17.70;16.10;;;19.70;61.70;;;;;;619759;230;27650;-73
2022/11/15 22:02:19;;;;;;;15.90;14.30;;;19.80;62.10;;;;;;621070;230;25971;-73
2022/11/15 22:04:45;;;;;;;25.60;14.37;;;19.80;62.10;;;;;;620689;230;25591;-73
2022/11/15 22:07:12;;;;;;;20.50;14.87;;;19.90;62.50;;;;;;621709;230;26100;-73
2022/11/15 22:09:39;;;;;;;16.50;14.90;;;20.10;62.40;;;;;;621653;230;25572;-73
2022/11/15 22:12:05;;;;;;;19.90;15.10;;;20.30;62.00;;;;;;621915;230;28692;-71
2022/11/15 22:14:32;;;;;;;17.20;15.70;;;20.40;61.60;;;;;;620327;230;27599;-70
2022/11/15 22:16:58;;;;;;;17.07;15.23;;;20.50;61.40;;;;;;620940;230;26001;-71
2022/11/15 22:19:25;;;;;;;17.10;15.40;;;20.60;61.50;;;;;;620399;228;25546;-72
2022/11/15 22:21:51;;;;;;;15.00;13.80;;;20.60;61.30;;;;;;622453;229;25573;-69
2022/11/15 22:24:18;;;;;;;15.73;14.43;;;20.60;61.40;;;;;;621280;229;25476;-71
2022/11/15 22:26:45;;;;;;;16.33;14.60;;;20.70;61.60;;;;;;619782;229;28129;-71
2022/11/15 22:29:11;;;;;;;17.53;15.07;;;20.70;61.50;;;;;;619274;229;25541;-72
2022/11/15 22:31:38;;;;;;;19.20;15.13;;;20.80;61.60;;;;;;622239;229;25965;-72
2022/11/15 22:34:05;;;;;;;15.67;14.47;;;20.80;61.60;;;;;;621713;229;25564;-72
2022/11/15 22:36:31;;;;;;;15.70;14.30;;;20.80;61.50;;;;;;622446;229;25962;-74
2022/11/15 22:38:58;;;;;;;16.53;14.90;;;20.90;61.60;;;;;;619526;230;25553;-74
2022/11/15 22:41:24;;;;;;;15.00;13.90;;;20.90;61.40;;;;;;621742;230;26100;-72
2022/11/15 22:43:51;;;;;;;20.50;15.00;;;20.90;61.30;;;;;;621556;230;27670;-74
2022/11/15 22:46:18;;;;;;;15.20;13.77;;;21.00;61.40;;;;;;619898;230;26002;-75
2022/11/15 22:48:44;;;;;;;16.83;14.20;;;21.00;61.30;;;;;;620922;230;27698;-74
2022/11/15 22:51:11;;;;;;;15.60;14.20;;;20.80;61.60;;;;;;622148;230;26080;-74
2022/11/15 22:53:38;;;;;;;29.83;16.00;;;20.80;61.60;;;;;;621230;230;28238;-73
2022/11/15 22:56:05;;;;;;;17.17;15.87;;;20.80;62.80;;;;;;621260;226;27590;-71
2022/11/15 22:58:32;;;;;;;19.83;15.90;;;20.90;62.60;;;;;;619462;230;27669;-72
2022/11/15 23:00:58;;;;;;;14.80;13.30;;;21.10;62.00;;;;;;621581;230;28294;-71
2022/11/15 23:03:25;;;;;;;14.80;13.70;;;21.00;61.70;;;;;;621035;230;25743;-73
2022/11/15 23:05:52;;;;;;;15.03;13.73;;;20.80;61.70;;;;;;620800;230;26246;-73
2022/11/15 23:08:20;;;;;;;24.33;13.87;;;20.70;61.80;;;;;;621537;230;25548;-72
2022/11/15 23:13:19;;;;;;;15.37;14.07;;;20.70;62.10;;;;;;619960;230;27642;-72
